Nelson House, Canada
Current Conditions -  °F | °C
As of 9:00 PM on Sunday 23 Nov 2014 (Local Time) from CYTH Reporting Station
Clear Clear  
Wind Chill: -17°   Ceiling: Unl
Heat Index: -17°   Visibility: 15mi
Dew Point: -22°   Wind: 2mph
Humidity: 76%   Direction: NA
Pressure: 29.96"   Gusts: NA
Location:  55.8°N, 98.87°W
Report Text: CYTH 240300Z VRB02KT 15SM SKC M27/M30 A2996 RMK SLP181
Loading
Personal Weather Stations






























Interactive Weather Map New forecast layout! Learn more

10-Day Weather Forecast

Advertisements
Track Severe Weather on mobile